Terminal Aerodrome Forecast
Issued by NWS

Home | Current Version | Previous Version | Graphics & Text | Print | Product List | Glossary On
Versions: 1 2 3 4 5 6 7 8 9 10 11 12 13 14 15 16 17 18 19 20 21 22 23 24 25 26 27 28 29 30 31 32 33 34
000
FTUS43 KLOT 211700
TAFORD
TAF
KORD 211731Z 2118/2224 34014G22KT P6SM BKN025
     FM212100 36013G18KT P6SM BKN025
     FM220000 01011KT P6SM SCT025 BKN035
     FM220300 01008KT P6SM SCT040
     FM220600 34004KT P6SM SKC
     FM221400 31007KT P6SM SKC=

USA.gov is the U.S. government's official web portal to all federal, state and local government web resources and services.